Tiempo atmosférico en la estación meteorológica de Castellón de la Plana, Almazora, Castelló/Castellón (35 m.)



Fecha
DESCASC
Temp. máxima en grados centígrados (hora)
DESCASC
Temp. mínima en grados centígrados (hora)
DESCASC
Temp. media en grados centígrados
DESCASC
Racha de viento máxima en m/sg (hora)
DESCASC
Velocidad máxima media en intervalos de 10 minutos(hora)
DESCASC
Precipitaciones diarias en mm
DESCASC
Precipitaciones de 00:00 a 06:00 en mm
DESCASC
Precipitaciones de 06:00 a 12:00 en mm
DESCASC
Precipitaciones de 12:00 a 18:00 en mm
DESCASC
Precipitaciones de 18:00 a 24:00 en mm
DESCASC

Gráficas

Temp. máximas Temp. mínimas Temp. medias Precipitaciones Rachas de viento máximas Velocidades máximas media en intervalos de 10 minutos

Datos horarios

Fecha y hora oficial Temperatura (ºC) Velocidad del viento (km/h) Dirección del viento Racha (km/h) Dirección de racha Precipitación (mm) Presión (hPa) Tendencia (hPa) Humedad (%)
2018-01-19 23:00:00 11.2 4 Noroeste 11 Oeste 0 1016.1 1.6 61
2018-01-19 22:00:00 11.7 4 Noroeste 18 Noroeste 0 1015.8 1.9 61
2018-01-19 21:00:00 12.1 6 Oeste 10 Noroeste 0 1014.8 2.1 66
2018-01-19 20:00:00 12.4 6 Sur 11 Sudoeste 0 1014.5 2.3 64
2018-01-19 19:00:00 13.6 3 Norte 8 Sudoeste 0 1013.9 1.9 61
2018-01-19 18:00:00 15.3 5 Sur 12 Sur 0 1012.7 0.8 55
2018-01-19 17:00:00 17.1 5 Sur 10 Sudeste 0 1012.2 -0.2 47
2018-01-19 16:00:00 17.8 7 Sur 17 Sur 0 1012 -0.8 47
2018-01-19 15:00:00 18.3 12 Sur 18 Sur 0 1011.9 -1.8 42
2018-01-19 14:00:00 17.6 5 Sur 11 Sudeste 0 1012.4 -1.6 44
2018-01-19 13:00:00 16.2 7 Oeste 19 Oeste 0 1012.8 -1.2 45
2018-01-19 12:00:00 15.4 9 Oeste 19 Oeste 0 1013.7 0.2 45
2018-01-19 11:00:00 13.1 11 Oeste 19 Oeste 0 1014 0.9 51
2018-01-19 10:00:00 11.1 11 Oeste 17 Noroeste 0 1014 1.5 56
2018-01-19 09:00:00 9.2 9 Noroeste 20 Oeste 0 1013.5 1.4 61
2018-01-19 08:00:00 9.3 9 Oeste 15 Oeste 0 1013.1 0.8 61
2018-01-19 07:00:00 8.5 7 Oeste 13 Oeste 0 1012.5 -0.2 64
2018-01-19 06:00:00 8.8 6 Oeste 11 Noroeste 0 1012.1 -0.9 69
2018-01-19 05:00:00 8.5 4 Noroeste 18 Noroeste 0 1012.3 -1.4 71
2018-01-19 04:00:00 8.2 10 Oeste 17 Noroeste 0 1012.7 -1.1 74
2018-01-19 03:00:00 8.5 5 Noroeste 11 Noroeste 0 1013 -0.8 73
2018-01-19 02:00:00 9 3 Noroeste 15 Oeste 0 1013.7 -1.3 71
2018-01-19 01:00:00 9.1 9 Oeste 23 Noroeste 0 1013.8 -1.5 77
2018-01-19 00:00:00 8.4 11 Oeste 18 Oeste 0 1013.8 -1.6 82
2018-01-18 23:00:00 8.8 9 Oeste 16 Oeste 0 1015 -0.9 81
2018-01-18 22:00:00 8.8 9 Oeste 14 Oeste 0 1015.3 -0.4 83
2018-01-18 21:00:00 9.9 0 Calma 6 Noroeste 0 1015.4 0 81
2018-01-18 20:00:00 10.6 2 Sudoeste 9 Sur 0 1015.9 0.6 79
2018-01-18 19:00:00 11.5 4 Sur 6 Sur 0 1015.7 0.2 78
2018-01-18 18:00:00 13 3 Sur 11 Sur 0 1015.4 -0.5 71
2018-01-18 17:00:00 14.6 7 Sur 19 Sur 0 1015.3 -1.7 61
2018-01-18 16:00:00 15.7 10 Sur 21 Sudeste 0 1015.5 -2.8 59
2018-01-18 15:00:00 16.7 12 Sur 22 Sur 0 1015.9 -3.8 50
2018-01-18 14:00:00 17.2 11 Sur 21 Sur 0 1017 -3.5 51
2018-01-18 13:00:00 16.9 9 Sudeste 15 Sur 0 1018.3 -2 48
2018-01-18 12:00:00 14.2 5 Oeste 10 Sudoeste 0 1019.7 -0.5 52
2018-01-18 11:00:00 11.2 7 Oeste 14 Oeste 0 1020.5 0.4 51
2018-01-18 10:00:00 8.5 11 Oeste 21 Noroeste 0 1020.3 0.6 53
2018-01-18 09:00:00 6.9 12 Oeste 20 Oeste 0 1020.2 0.6 57
2018-01-18 08:00:00 7.1 11 Noroeste 19 Noroeste 0 1020.1 0.4 55
2018-01-18 07:00:00 6.8 9 Oeste 15 Noroeste 0 1019.7 -0.2 59
2018-01-18 06:00:00 6.9 8 Oeste 14 Noroeste 0 1019.6 -0.5 61
2018-01-18 05:00:00 7.8 5 Noroeste 19 Oeste 0 1019.7 -0.4 56
2018-01-18 04:00:00 7.8 8 Noroeste 19 Noroeste 0 1019.9 -0.3 57
2018-01-18 03:00:00 8.5 10 Oeste 19 Oeste 0 1020.1 0.2 55
2018-01-18 02:00:00 9.2 5 Noroeste 20 Oeste 0 1020.1 0.4 53
2018-01-18 01:00:00 10.1 11 Oeste 23 Oeste 0 1020.2 1.1 51
2018-01-18 00:00:00 10.3 8 Noroeste 16 Oeste 0 1019.9 1.2 51
2018-01-17 23:00:00 11.3 7 Oeste 17 Oeste 0 1019.7 1.7 53
2018-01-17 22:00:00 12.7 8 Noroeste 16 Noroeste 0 1019.1 1.7 47
2018-01-17 21:00:00 11.7 4 Noroeste 10 Noroeste 0 1018.7 2 58
2018-01-17 20:00:00 13 4 Noroeste 8 Noroeste 0 1018 2.2 55
2018-01-17 19:00:00 14.7 2 Norte 6 Este 0 1017.4 2.1 50
2018-01-17 18:00:00 16.7 3 Este 9 Este 0 1016.7 1.8 43
2018-01-17 17:00:00 18.3 6 Sudeste 14 Sudeste 0 1015.8 0.7 39
2018-01-17 16:00:00 19 8 Sudeste 16 Este 0 1015.3 0 36
2018-01-17 15:00:00 19.5 8 Sudeste 16 Sudeste 0 1014.9 -0.7 38
2018-01-17 14:00:00 20.1 10 Sudeste 17 Sudeste 0 1015.1 -0.3 38
2018-01-17 13:00:00 21 8 Sudeste 17 Sudeste 0 1015.3 0.5 38
2018-01-17 12:00:00 19.1 4 Noroeste 14 Oeste 0 1015.6 1.5 35
2018-01-17 11:00:00 16 7 Oeste 13 Oeste 0 1015.4 1.8 46
2018-01-17 10:00:00 11.1 2 Norte 12 Norte 0 1014.8 1.3 65
2018-01-17 09:00:00 10.1 5 Noroeste 15 Sudoeste 0 1014.1 1.1 66
2018-01-17 08:00:00 9.9 6 Oeste 15 Oeste 0 1013.6 0.9 65
2018-01-17 07:00:00 10.3 4 Nordeste 10 Oeste 0 1013.5 0.8 61
2018-01-17 06:00:00 10.2 5 Noroeste 21 Oeste 0 1013 -0.5 61
2018-01-17 05:00:00 9.6 6 Noroeste 10 Noroeste 0 1012.7 -1.5 64
2018-01-17 04:00:00 10.3 7 Oeste 14 Noroeste 0 1012.7 -1.6 65
2018-01-17 03:00:00 10.9 9 Oeste 16 Oeste 0 1013.5 -1.2 62
2018-01-17 02:00:00 12.4 6 Noroeste 11 Noroeste 0 1014.2 -0.2 56
2018-01-17 01:00:00 13.1 7 Norte 13 Oeste 0 1014.3 -0.3 55
2018-01-17 00:00:00 15 8 Noroeste 21 Oeste 0 1014.7 -0.2 50
2018-01-16 23:00:00 16.8 13 Noroeste 27 Oeste 0 1014.4 -0.3 48
2018-01-16 22:00:00 16.6 6 Noroeste 20 Oeste 0 1014.6 0 51
2018-01-16 21:00:00 17.3 14 Oeste 22 Oeste 0 1014.9 0.6 50
2018-01-16 20:00:00 17.5 7 Noroeste 16 Oeste 0 1014.7 0.2 49
2018-01-16 19:00:00 17.4 8 Oeste 14 Oeste 0 1014.6 0.3 50
2018-01-16 18:00:00 18.6 5 Noroeste 10 Norte 0 1014.3 -0.1 50
2018-01-16 17:00:00 20.7 8 Sur 13 Sur 0 1014.5 -0.8 42
2018-01-16 16:00:00 21.8 10 Sur 15 Sur 0 1014.3 -2.1 35
2018-01-16 15:00:00 21.9 9 Sur 17 Sudeste 0 1014.4 -2.9 36
2018-01-16 14:00:00 21.4 7 Sudeste 12 Sudeste 0 1015.3 -2.4 37
2018-01-16 13:00:00 19.9 4 Sur 11 Sur 0 1016.4 -1 39
2018-01-16 12:00:00 16.7 8 Sur 12 Sur 0 1017.3 0.1 45
2018-01-16 11:00:00 14.3 6 Sudoeste 17 Noroeste 0 1017.7 0.7 47
2018-01-16 10:00:00 11.4 12 Oeste 18 Oeste 0 1017.4 0.7 53
2018-01-16 09:00:00 7.4 4 Norte 19 Noroeste 0 1017.2 0.2 58
2018-01-16 08:00:00 7.9 8 Oeste 19 Oeste 0 1017 -0.3 58
2018-01-16 07:00:00 6.9 8 Noroeste 18 Oeste 0 1016.7 -1.1 59
2018-01-16 06:00:00 6.9 9 Sudoeste 17 Sudoeste 0 1017 -0.9 59
2018-01-16 05:00:00 6.9 11 Oeste 17 Oeste 0 1017.3 -0.9 62
2018-01-16 04:00:00 7.1 12 Oeste 17 Oeste 0 1017.8 -1 62
2018-01-16 03:00:00 5.8 6 Noroeste 13 Oeste 0 1017.9 -1.2 72
2018-01-16 02:00:00 5.8 8 Noroeste 14 Oeste 0 1018.2 -1.4 74
2018-01-16 01:00:00 6.4 5 Sudoeste 13 Oeste 0 1018.8 -0.8 73
2018-01-16 00:00:00 6.5 4 Noroeste 15 Oeste 0 1019.1 -0.7 75
2018-01-15 23:00:00 7 7 Noroeste 15 Oeste 0 1019.6 0.1 75
2018-01-15 22:00:00 7.9 5 Noroeste 13 Noroeste 0 1019.6 0.3 73
2018-01-15 21:00:00 8.8 6 Noroeste 13 Noroeste 0 1019.8 1.4 71
2018-01-15 20:00:00 10 6 Sur 9 Sudoeste 0 1019.5 1.2 68
2018-01-15 19:00:00 10.9 2 Este 6 Nordeste 0 1019.3 1.2 66
2018-01-15 18:00:00 11.5 4 Sudeste 17 Sur 0 1018.4 0.4 63
2018-01-15 17:00:00 12.9 9 Sur 21 Sur 0 1018.3 -0.3 54
2018-01-15 16:00:00 13.8 13 Sur 21 Sur 0 1018.1 -1.4 45
2018-01-15 15:00:00 14.7 10 Sur 20 Sur 0 1018 -2.3 39
2018-01-15 14:00:00 15.5 12 Sur 22 Sur 0 1018.6 -1.4 36
2018-01-15 13:00:00 14.9 5 Noroeste 14 Oeste 0 1019.5 0.2 35
2018-01-15 12:00:00 12.5 5 Noroeste 16 Oeste 0 1020.3 1.3 43
2018-01-15 11:00:00 10.1 12 Oeste 22 Oeste 0 1020 1.7 51
2018-01-15 10:00:00 6.6 10 Oeste 20 Oeste 0 1019.3 2.1 65
2018-01-15 09:00:00 4.4 10 Noroeste 19 Oeste 0 1019 2.1 73
2018-01-15 08:00:00 4.7 12 Oeste 19 Oeste 0 1018.3 1.8 71
2018-01-15 07:00:00 5 11 Oeste 19 Oeste 0 1017.2 1.1 70
2018-01-15 06:00:00 4.5 11 Oeste 18 Oeste 0 1016.9 0.9 73
2018-01-15 05:00:00 4.9 12 Oeste 17 Oeste 0 1016.5 0.7 70
2018-01-15 04:00:00 4.9 9 Oeste 16 Noroeste 0 1016.1 0.3 70
2018-01-15 03:00:00 5.1 8 Noroeste 15 Oeste 0 1016 0.4 69
2018-01-15 02:00:00 5.6 8 Noroeste 14 Noroeste 0 1015.8 0.8 67
2018-01-15 01:00:00 5.7 8 Noroeste 16 Noroeste 0 1015.8 1.3 69
2018-01-15 00:00:00 6 8 Oeste 15 Oeste 0 1015.6 1.6 68
2018-01-14 23:00:00 6.3 5 Noroeste 14 Oeste 0 1015 1.7 67
2018-01-14 22:00:00 6.6 6 Noroeste 12 Noroeste 0 1014.5 2 67
2018-01-14 21:00:00 7.4 6 Noroeste 11 Oeste 0 1014 2.4 65
2018-01-14 20:00:00 8.6 2 Norte 8 Norte 0 1013.3 2.4 59
2018-01-14 19:00:00 10.3 0 Calma 9 Nordeste 0 1012.5 1.8 52
2018-01-14 18:00:00 11.4 4 Sudoeste 15 Sur 0 1011.6 1.2 49
2018-01-14 17:00:00 13.3 8 Sur 13 Sur 0 1010.9 0.1 43
2018-01-14 16:00:00 13.9 4 Sur 13 Sur 0 1010.7 -0.7 37
2018-01-14 15:00:00 13.9 4 Sur 11 Sudeste 0 1010.4 -1.3 37
2018-01-14 14:00:00 13.7 5 Sur 10 Sudeste 0 1010.8 -0.7 39
2018-01-14 13:00:00 13.5 5 Sudeste 9 Sudeste 0 1011.4 0.5 42
2018-01-14 12:00:00 12.2 2 Sudoeste 12 Noroeste 0 1011.7 0.8 45
2018-01-14 11:00:00 9.1 10 Noroeste 17 Oeste 0 1011.5 1 58
2018-01-14 10:00:00 7.5 14 Oeste 19 Oeste 0 1010.9 1 60
2018-01-14 09:00:00 4 7 Noroeste 16 Oeste 0 1010.9 1.4 76
2018-01-14 08:00:00 4.8 9 Oeste 15 Sudoeste 0 1010.5 0.8 74
2018-01-14 07:00:00 6.3 9 Oeste 15 Oeste 0 1009.9 0.1 66
2018-01-14 06:00:00 6.4 6 Noroeste 14 Oeste 0 1009.5 0.1 67
2018-01-14 05:00:00 6.9 7 Noroeste 14 Noroeste 0 1009.7 0.3 67
2018-01-14 04:00:00 6.3 5 Noroeste 11 Norte 0 1009.8 0 72
2018-01-14 03:00:00 6.9 5 Noroeste 12 Sudoeste 0 1009.4 -0.4 71
2018-01-14 02:00:00 6.4 7 Oeste 12 Oeste 0 1009.4 -0.4 76
2018-01-14 01:00:00 7.4 5 Noroeste 15 Sudoeste 0 1009.8 -0.4 74
2018-01-14 00:00:00 7.5 4 Oeste 8 Sudoeste 0 1009.8 -0.7 74
2018-01-13 23:00:00 8.6 5 Noroeste 13 Sudoeste 0 1009.8 -0.3 69
2018-01-13 22:00:00 9.4 4 Noroeste 11 Norte 0 1010.2 -0.6 72
2018-01-13 21:00:00 10.2 5 Sudoeste 8 Sudoeste 0 1010.5 -0.3 67
2018-01-13 20:00:00 10.3 3 Sur 10 Sudoeste 0 1010.1 -1 65
2018-01-13 19:00:00 10.4 6 Sudoeste 12 Sur 0 1010.8 -0.1 64
2018-01-13 18:00:00 10.8 7 Sur 14 Sur 0 1010.8 -1.2 63
2018-01-13 17:00:00 12.5 8 Sur 13 Sur 0 1011.1 -1.4 61
2018-01-13 16:00:00 12.3 5 Sudeste 9 Sur 0 1010.9 -2.6 65
2018-01-13 15:00:00 12.2 8 Sur 14 Este 0 1012 -2.6 68
2018-01-13 14:00:00 13.5 5 Sur 12 Sur 0 1012.5 -2.4 61
2018-01-13 13:00:00 13.1 4 Sudeste 9 Noroeste 0 1013.5 -1.4 65
2018-01-13 12:00:00 11.8 7 Oeste 17 Oeste 0 1014.6 -0.1 56
2018-01-13 11:00:00 9.7 8 Oeste 21 Oeste 0 1014.9 0 63
2018-01-13 10:00:00 7.6 8 Noroeste 21 Oeste 0 1014.9 0.1 70
2018-01-13 09:00:00 6.7 9 Oeste 17 Oeste 0 1014.7 -0.2 70
2018-01-13 08:00:00 6.3 12 Oeste 22 Oeste 0 1014.9 -0.4 71
2018-01-13 07:00:00 6.4 13 Oeste 23 Oeste 0 1014.8 -1.3 71
2018-01-13 06:00:00 6.2 12 Oeste 23 Noroeste 0 1014.9 -1.5 75
2018-01-13 05:00:00 6.5 13 Oeste 22 Oeste 0 1015.3 -1.5 72
2018-01-13 04:00:00 6.5 11 Oeste 18 Noroeste 0 1016.1 -1.4 73
2018-01-13 03:00:00 6.6 13 Oeste 23 Noroeste 0 1016.4 -1.3 70
2018-01-13 02:00:00 6.6 15 Oeste 22 Oeste 0 1016.8 -1 70
2018-01-13 01:00:00 7.2 12 Oeste 19 Oeste 0 1017.5 -0.2 68
2018-01-13 00:00:00 7.5 8 Noroeste 17 Oeste 0 1017.7 0.1 69
2018-01-12 23:00:00 7.9 8 Noroeste 13 Noroeste 0 1017.8 0.7 70
2018-01-12 22:00:00 7.8 3 Noroeste 7 Norte 0 1017.7 1.1 67
2018-01-12 21:00:00 8.4 3 Noroeste 7 Noroeste 0 1017.6 1.7 65
2018-01-12 20:00:00 10.1 3 Noroeste 6 Norte 0 1017.1 1.3 61
2018-01-12 19:00:00 11.4 4 Norte 9 Sur 0 1016.6 1.3 62
2018-01-12 18:00:00 12.7 5 Sur 12 Sur 0 1015.9 0.7 52
2018-01-12 17:00:00 14.6 6 Sur 18 Sur 0 1015.8 0.2 42
2018-01-12 16:00:00 15.7 8 Sur 19 Sur 0 1015.3 -1.1 38
2018-01-12 15:00:00 16.1 12 Sur 21 Sur 0 1015.2 -1.9 37
2018-01-12 14:00:00 16.9 10 Sur 19 Sudoeste 0 1015.6 -2 31
2018-01-12 13:00:00 16.2 13 Sur 22 Sudoeste 0 1016.4 -1.3 32
2018-01-12 12:00:00 14.1 9 Oeste 25 Noroeste 0 1017.1 0 35
2018-01-12 11:00:00 12.3 15 Oeste 30 Oeste 0 1017.6 1.2 43
2018-01-12 10:00:00 10.1 11 Oeste 21 Oeste 0 1017.7 1.5 51
2018-01-12 09:00:00 8.7 12 Oeste 22 Oeste 0 1017.1 1.1 57
2018-01-12 08:00:00 8.1 8 Oeste 21 Oeste 0 1016.4 0.4 58
2018-01-12 07:00:00 8.2 9 Noroeste 21 Oeste 0 1016.2 0.5 57
2018-01-12 06:00:00 7.1 5 Oeste 13 Oeste 0 1016 0.8 60
2018-01-12 05:00:00 8.5 9 Oeste 15 Noroeste 0 1016 0.9 57
2018-01-12 04:00:00 8.7 5 Oeste 14 Oeste 0 1015.7 0.7 56
2018-01-12 03:00:00 9 9 Oeste 17 Oeste 0 1015.2 0.2 53
2018-01-12 02:00:00 8.5 5 Noroeste 13 Oeste 0 1015.1 0.4 54
2018-01-12 01:00:00 9.7 8 Oeste 15 Oeste 0 1015 0.4 51
2018-01-12 00:00:00 10.7 12 Oeste 23 Noroeste 0 1015 0.9 48
2018-01-11 23:00:00 11.4 12 Oeste 28 Oeste 0 1014.7 0.7 44
2018-01-11 22:00:00 11 10 Oeste 20 Noroeste 0 1014.6 1.5 44
2018-01-11 21:00:00 11.3 9 Noroeste 19 Oeste 0 1014.1 1.7 41
2018-01-11 20:00:00 11.1 4 Sudoeste 10 Oeste 0 1014 2.2 41
2018-01-11 19:00:00 12.4 5 Noroeste 13 Norte 0 1013.1 2 34
2018-01-11 18:00:00 13.4 5 Norte 28 Nordeste 0 1012.4 1.5 31
2018-01-11 17:00:00 14.5 11 Norte 33 Norte 0 1011.8 1.3 28
2018-01-11 16:00:00 14.7 15 Norte 30 Norte 0 1011.1 -0.6 28
2018-01-11 15:00:00 14.7 10 Norte 31 Noroeste 0 1010.9 -0.9 28
2018-01-11 14:00:00 15.5 21 Oeste 42 Oeste 0 1010.5 -1.4 27
2018-01-11 13:00:00 15.2 21 Oeste -- -- -- 1011.7 0.3 29
2018-01-11 12:00:00 14 14 Noroeste 39 Oeste 0 1011.8 0.4 31
2018-01-11 11:00:00 13.4 18 Oeste 35 Oeste 0 1011.9 0.7 33
2018-01-11 10:00:00 11.8 15 Oeste 30 Oeste 0 1011.4 -0.1 40
2018-01-11 09:00:00 10 10 Sudoeste 23 Sudoeste 0 1011.4 0.2 46
2018-01-11 08:00:00 10.3 13 Sudoeste 36 Oeste 0 1011.2 0.2 43
2018-01-11 07:00:00 10.2 10 Oeste 27 Oeste 0 1011.5 -0.1 44
2018-01-11 06:00:00 10.3 5 Oeste 24 Oeste 0 1011.2 -0.1 43
2018-01-11 05:00:00 10.4 13 Oeste 23 Sudoeste 0 1011 0.6 44
2018-01-11 04:00:00 10.5 8 Oeste 18 Oeste 0 1011.6 1 43
2018-01-11 03:00:00 11.3 4 Oeste 32 Noroeste 0 1011.3 1.2 39
2018-01-11 02:00:00 12.4 18 Oeste 35 Oeste 0 1010.4 0.9 38
2018-01-11 01:00:00 11.7 6 Noroeste 16 Oeste 0 1010.6 1.1 44
2018-01-11 00:00:00 12.5 8 Noroeste 32 Sudoeste 0 1010.1 0.3 47
2018-01-10 23:00:00 12 12 Oeste 26 Oeste 0 1009.5 -0.1 53
2018-01-10 22:00:00 11.8 8 Sudoeste 13 Sudoeste 0 1009.5 0 52
2018-01-10 21:00:00 13.1 9 Sudoeste 18 Oeste 0 1009.8 0.2 46
2018-01-10 20:00:00 12.7 4 Oeste 12 Sudoeste 0 1009.6 0.2 51
2018-01-10 19:00:00 14.8 6 Noroeste 20 Oeste 0 1009.5 0.5 41
2018-01-10 18:00:00 15.1 14 Noroeste 42 Oeste 0 1009.6 0.9 39
2018-01-10 17:00:00 13.7 5 Sudeste 11 Este 0 1009.4 0.3 66
2018-01-10 16:00:00 13.9 7 Este 13 Este 0 1009 -0.9 63
2018-01-10 15:00:00 14.3 6 Este 15 Sudeste 0 1008.7 -1.9 56
2018-01-10 14:00:00 14.7 6 Sudeste 17 Este 0 1009.1 -1.9 54
2018-01-10 13:00:00 14.4 6 Sudeste 13 Sudeste 0 1009.9 -0.9 56
2018-01-10 12:00:00 12.4 7 Sudeste 12 Sudeste 0 1010.6 -0.1 62
2018-01-10 11:00:00 9.3 2 Norte 6 Norte 0 1011 0.8 69
2018-01-10 10:00:00 8.6 2 Oeste 9 Oeste 0 1010.8 1.4 74
2018-01-10 09:00:00 7.4 5 Noroeste 10 Oeste 0 1010.7 1.3 78
2018-01-10 08:00:00 6.9 4 Noroeste 12 Noroeste 0 1010.2 0.4 79
2018-01-10 07:00:00 7.3 5 Noroeste 9 Norte 0 1009.4 -0.7 77
2018-01-10 06:00:00 7.6 4 Noroeste 8 Norte 0 1009.4 -1.4 81
2018-01-10 05:00:00 7.7 4 Norte 13 Sudoeste 0 1009.8 -1.4 78
2018-01-10 04:00:00 8.4 9 Sudoeste 12 Oeste 0 1010.1 -1.5 75
2018-01-10 03:00:00 8.6 9 Sudoeste 16 Sudoeste 0 1010.8 -1.2 74
2018-01-10 02:00:00 8.5 12 Sudoeste 24 Sudoeste 0.2 1011.2 -1 76
2018-01-10 01:00:00 8.8 9 Sudoeste 18 Sur 0 1011.6 -0.7 69
2018-01-10 00:00:00 8.4 10 Sudoeste 15 Sur 0 1012 -0.6 60
2018-01-09 23:00:00 7.8 3 Oeste 8 Noroeste 0 1012.2 -0.2 73
2018-01-09 22:00:00 8.2 4 Noroeste 8 Sudoeste 0 1012.3 0.3 71
2018-01-09 21:00:00 8 3 Oeste 12 Noroeste 0 1012.6 1.3 73
2018-01-09 20:00:00 8.7 5 Noroeste 8 Noroeste 0 1012.4 1.6 67
2018-01-09 19:00:00 10.2 3 Nordeste 8 Nordeste 0 1012 1.6 70
2018-01-09 18:00:00 12.1 4 Nordeste 17 Sudoeste 0 1011.3 1.2 53
2018-01-09 17:00:00 13.6 10 Sudoeste 19 Sudoeste 0 1010.8 -0.1 39
2018-01-09 16:00:00 13.6 5 Este 13 Este 0 1010.4 -1.4 47
2018-01-09 15:00:00 13.6 4 Nordeste 9 Sudeste 0 1010.1 -2.1 41
2018-01-09 14:00:00 13.4 3 Sudeste 13 Sur 0 1010.9 -1.3 40
2018-01-09 13:00:00 13.1 8 Sur 12 Sur 0 1011.8 0.5 51
2018-01-09 12:00:00 10.9 4 Sudoeste 10 Oeste 0 1012.2 1.1 47
2018-01-09 11:00:00 8.4 9 Oeste 19 Oeste 0 1012.2 1.8 56
2018-01-09 10:00:00 6.4 8 Oeste 21 Oeste 0 1011.3 1.3 65
2018-01-09 09:00:00 4.3 9 Oeste 17 Oeste 0 1011.1 1.8 73
2018-01-09 08:00:00 4.8 6 Noroeste 18 Oeste 0 1010.4 1.2 69
2018-01-09 07:00:00 4.8 11 Oeste 18 Oeste 0 1010 1 71
2018-01-09 06:00:00 4.8 9 Noroeste 17 Noroeste 0 1009.3 0.6 73
2018-01-09 05:00:00 5.6 8 Noroeste 18 Oeste 0 1009.2 1 68
2018-01-09 04:00:00 5.6 12 Oeste 22 Oeste 0 1009 0.8 73
2018-01-09 03:00:00 5.5 12 Oeste 24 Oeste 0 1008.7 0.3 76
2018-01-09 02:00:00 5.5 14 Oeste 22 Oeste 0 1008.2 0.2 80
2018-01-09 01:00:00 5.8 7 Noroeste 18 Noroeste 0 1008.2 0.4 79
2018-01-09 00:00:00 6.7 12 Oeste 20 Noroeste 0 1008.4 0.8 78
2018-01-08 23:00:00 6.9 10 Oeste 17 Oeste 0 1008 1.3 81
2018-01-08 22:00:00 7.6 10 Oeste 18 Oeste 0 1007.8 1.7 80
2018-01-08 21:00:00 8 10 Oeste 15 Oeste 0 1007.6 2.3 79
2018-01-08 20:00:00 9.1 2 Noroeste 5 Nordeste 0 1006.7 1.4 76
2018-01-08 19:00:00 10 0 Calma 4 Nordeste 0 1006.1 1.1 74
2018-01-08 18:00:00 11.1 2 Sudeste 9 Sur 0 1005.3 0.6 69
2018-01-08 17:00:00 12.1 5 Sur 11 Sur 0 1005.3 0.8 63
2018-01-08 16:00:00 12.6 5 Sur 14 Sur 0 1005 0.4 58
2018-01-08 15:00:00 13.2 8 Sudeste 17 Este 0 1004.7 -0.3 58
2018-01-08 14:00:00 14 8 Sur 21 Este 0 1004.5 -0.6 48
2018-01-08 13:00:00 14.1 4 Sudeste 14 Oeste 0 1004.6 -0.3 42
2018-01-08 12:00:00 11.1 8 Noroeste 23 Oeste 0 1005 0.6 50
2018-01-08 11:00:00 8.6 14 Oeste 20 Oeste 0 1005.1 1.1 60
2018-01-08 10:00:00 6.4 12 Oeste 22 Oeste 0 1004.9 1.1 67
2018-01-08 09:00:00 4.8 14 Oeste 24 Oeste 0 1004.4 1 74
2018-01-08 08:00:00 5 16 Oeste 25 Oeste 0 1004 0.5 77
2018-01-08 07:00:00 5.4 13 Noroeste 25 Oeste 0 1003.8 0.4 76
2018-01-08 06:00:00 5.9 13 Oeste 19 Oeste 0 1003.4 0.7 78
2018-01-08 05:00:00 6.5 9 Oeste 17 Noroeste 0.2 1003.5 0.9 80
2018-01-08 04:00:00 6.5 12 Oeste 22 Oeste 0 1003.4 1 72
2018-01-08 03:00:00 5.2 12 Oeste 18 Oeste 0 1002.7 1.1 81
2018-01-08 02:00:00 5.2 10 Noroeste 18 Oeste 0 1002.6 1.2 81
2018-01-08 01:00:00 5.3 12 Oeste 19 Noroeste 0 1002.4 0.8 80
2018-01-08 00:00:00 5.4 11 Oeste 17 Oeste 0 1001.6 0.3 83
2018-01-07 23:00:00 6 10 Oeste 17 Oeste 0 1001.4 0.5 80
2018-01-07 22:00:00 6.8 8 Oeste 12 Noroeste 0 1001.6 1.5 78
2018-01-07 21:00:00 7.4 9 Oeste 13 Oeste 0 1001.3 2.2 77
2018-01-07 20:00:00 9 0 Calma 8 Noroeste 0 1000.9 2.9 68
2018-01-07 19:00:00 9.7 3 Sur 12 Sur 0 1000.1 2.8 62
2018-01-07 18:00:00 10.9 7 Sur 13 Sur 0 999.1 2 57
2018-01-07 17:00:00 12.5 5 Sur 12 Oeste 0 998 1 50
2018-01-07 16:00:00 13 6 Sudoeste 17 Sur 0 997.3 0 44
2018-01-07 15:00:00 13.3 9 Oeste 14 Sur 0 997.1 -0.2 47
2018-01-07 14:00:00 13.3 6 Oeste 16 Sudoeste 0 997 0.3 50
2018-01-07 13:00:00 12.2 6 Sur 13 Sur 0 997.3 2 60
2018-01-07 12:00:00 9 5 Sudoeste 13 Sudoeste 0 997.3 3.1 75
2018-01-07 11:00:00 6.9 4 Sudoeste 9 Sur 0 996.7 3.3 93
2018-01-07 10:00:00 6.5 0 Calma 4 Norte 0 995.3 3.1 96
2018-01-07 09:00:00 6.2 2 Noroeste 10 Sudoeste 0 994.2 2.8 97
2018-01-07 08:00:00 5.7 4 Sudoeste 7 Sudoeste 0 993.4 2.7 96
2018-01-07 07:00:00 5.7 4 Norte 7 Sudoeste 0 992.2 1.4 96
2018-01-07 06:00:00 5.9 3 Sudoeste 8 Sur 0 991.4 1.2 96
2018-01-07 05:00:00 6.7 4 Noroeste 7 Noroeste 0 990.7 0.4 94
2018-01-07 04:00:00 7.3 3 Sudoeste 10 Sur 0 990.8 0.5 94
2018-01-07 03:00:00 8.3 4 Noroeste 11 Noroeste 0 990.2 0.1 91
2018-01-07 02:00:00 8.7 7 Sudoeste 13 Sudoeste 0.2 990.3 0.7 91
2018-01-07 01:00:00 8.7 7 Oeste 15 Oeste 0.4 990.3 0.2 91
2018-01-07 00:00:00 8.8 2 Sudoeste 13 Oeste 0.2 990.1 -0.4 93
2018-01-06 23:00:00 8.6 10 Oeste 21 Noroeste 0.2 989.6 0 91
2018-01-06 22:00:00 9 9 Noroeste 21 Oeste 0.2 990.1 1.1 85
2018-01-06 21:00:00 8.2 8 Noroeste 37 Oeste 4.8 990.5 0.8 88
2018-01-06 20:00:00 13.9 11 Este 18 Este 0 989.6 -0.4 89
2018-01-06 19:00:00 13.8 6 Este 24 Sudeste 0 989 -1.6 85
2018-01-06 18:00:00 14 10 Este 21 Este 0 989.7 -1.3 93
2018-01-06 17:00:00 14.3 13 Este 25 Este 0 990 -2 91
2018-01-06 16:00:00 14.1 9 Este 26 Este 0 990.6 -2.2 87
2018-01-06 15:00:00 14.1 6 Nordeste 17 Nordeste 0 991 -3.9 78
2018-01-06 14:00:00 14.2 9 Nordeste 19 Norte 0 992 -3.4 75
2018-01-06 13:00:00 14.1 13 Nordeste 23 Nordeste 0 992.8 -2.1 77
2018-01-06 12:00:00 13.8 5 Nordeste 13 Nordeste 0 994.9 0 79
2018-01-06 11:00:00 11.5 5 Oeste 8 Sudoeste 0 995.4 0.3 70
2018-01-06 10:00:00 9.2 6 Oeste 11 Noroeste 0 994.9 -0.6 72
2018-01-06 09:00:00 7.6 6 Noroeste 10 Noroeste 0 994.9 -0.8 76
2018-01-06 08:00:00 7 3 Noroeste 9 Noroeste 0 995.1 -1.1 77
2018-01-06 07:00:00 7.1 3 Noroeste 9 Oeste 0 995.5 -1.7 75
2018-01-06 06:00:00 7.6 5 Noroeste 13 Noroeste 0 995.7 -2.1 72
2018-01-06 05:00:00 7.6 6 Oeste 10 Oeste 0 996.2 -2.4 73
2018-01-06 04:00:00 8.1 7 Noroeste 13 Noroeste 0 997.2 -2.1 70
2018-01-06 03:00:00 8.6 5 Noroeste 9 Noroeste 0 997.8 -1.9 68
2018-01-06 02:00:00 10.2 2 Noroeste 12 Sudoeste 0 998.6 -1.4 62
2018-01-06 01:00:00 11.8 8 Sudoeste 21 Oeste 0 999.3 -1.1 57
2018-01-06 00:00:00 12.2 13 Oeste 19 Oeste 0 999.7 -1 56
2018-01-05 23:00:00 11.5 6 Oeste 12 Sudoeste 0 1000 -0.9 58
2018-01-05 22:00:00 13.9 9 Sudoeste 17 Sudoeste 0 1000.4 -0.5 50
2018-01-05 21:00:00 14.3 9 Sudoeste 15 Oeste 0 1000.7 -0.3 48
2018-01-05 20:00:00 14.6 7 Sudoeste 18 Oeste 0 1000.9 -0.2 47
2018-01-05 19:00:00 14.2 4 Noroeste 11 Nordeste 0 1000.9 -0.3 53
2018-01-05 18:00:00 15.5 3 Norte 13 Nordeste 0 1001 -0.9 50
2018-01-05 17:00:00 17 5 Nordeste 21 Nordeste 0 1001.1 -1.8 44
2018-01-05 16:00:00 18.2 10 Nordeste 23 Nordeste 0 1001.2 -3.1 41
2018-01-05 15:00:00 19.5 9 Nordeste 21 Nordeste 0 1001.9 -3.7 39
2018-01-05 14:00:00 21.2 10 Sur 23 Sudoeste 0 1002.9 -3.7 30
2018-01-05 13:00:00 20.4 15 Sudoeste 27 Oeste 0 1004.3 -2.3 32
2018-01-05 12:00:00 17.6 6 Noroeste 15 Oeste 0 1005.6 -1.1 39
2018-01-05 11:00:00 15.7 9 Oeste 19 Oeste 0 1006.6 -0.3 43
2018-01-05 10:00:00 13 11 Oeste 18 Noroeste 0 1006.6 -0.6 52
2018-01-05 09:00:00 9 10 Oeste 13 Noroeste 0 1006.7 -0.8 64
2018-01-05 08:00:00 9.4 7 Noroeste 19 Noroeste 0 1006.9 -1.3 61
2018-01-05 07:00:00 10.7 12 Oeste 18 Oeste 0 1007.2 -2.2 58
2018-01-05 06:00:00 10.2 9 Noroeste 17 Oeste 0 1007.5 -2.6 60
2018-01-05 05:00:00 11.4 10 Oeste 17 Noroeste 0 1008.2 -2.4 60
2018-01-05 04:00:00 11.2 9 Oeste 14 Oeste 0 1009.4 -1.9 56
2018-01-05 03:00:00 10.2 6 Noroeste 12 Oeste 0 1010.1 -1.8 61
2018-01-05 02:00:00 12 9 Oeste 15 Oeste 0 1010.6 -1.6 56
2018-01-05 01:00:00 11.8 4 Oeste 15 Noroeste 0 1011.3 -0.4 59
2018-01-05 00:00:00 12.3 8 Oeste 18 Oeste 0 1011.9 0 69
2018-01-04 23:00:00 12.6 4 Noroeste 11 Norte 0 1012.2 0.5 65
2018-01-04 22:00:00 14.2 3 Este 9 Este 0 1011.7 0.1 67
2018-01-04 21:00:00 15.2 4 Norte 14 Oeste 0 1011.9 0.7 58
2018-01-04 20:00:00 16.7 10 Oeste 15 Noroeste 0 1011.7 0.3 53
2018-01-04 19:00:00 17.9 5 Noroeste 8 Noroeste 0 1011.6 -0.4 57
2018-01-04 18:00:00 19.9 3 Sudoeste 12 Sudeste 0 1011.2 -1.1 50
2018-01-04 17:00:00 22.3 6 Sur 15 Sur 0 1011.4 -1.8 43
2018-01-04 16:00:00 22.8 8 Sur 17 Sudeste 0 1012 -2.2 43
2018-01-04 15:00:00 23.4 6 Nordeste 20 Nordeste 0 1012.3 -3.3 38
2018-01-04 14:00:00 25.7 10 Oeste 25 Oeste 0 1013.2 -2.9 27
2018-01-04 13:00:00 24.5 14 Oeste 32 Oeste 0 1014.2 -2.1 32
2018-01-04 12:00:00 22.3 14 Oeste 38 Oeste 0 1015.6 -1 38
2018-01-04 11:00:00 20.6 20 Oeste 38 Oeste 0 1016.1 -0.5 44
2018-01-04 10:00:00 18.8 21 Sudoeste 31 Sudoeste 0 1016.3 -0.1 50
2018-01-04 09:00:00 16.8 11 Oeste 26 Oeste 0 1016.6 0.3 55
2018-01-04 08:00:00 16.6 8 Noroeste 21 Noroeste 0 1016.6 -0.2 56
2018-01-04 07:00:00 17 8 Oeste 22 Oeste 0 1016.4 -0.9 56
2018-01-04 06:00:00 16.1 10 Noroeste 17 Oeste 0 1016.3 -1.2 58
2018-01-04 05:00:00 15 8 Noroeste 17 Noroeste 0 1016.8 -1 62
2018-01-04 04:00:00 15.4 11 Oeste 14 Oeste 0 1017.3 -1.2 60
2018-01-04 03:00:00 16.4 6 Noroeste 14 Oeste 0 1017.5 -1.5 57
2018-01-04 02:00:00 17.9 9 Oeste 19 Oeste 0 1017.8 -1.3 53
2018-01-04 01:00:00 17.4 6 Noroeste 13 Oeste 0 1018.5 -0.6 54
2018-01-04 00:00:00 17.4 5 Noroeste 17 Oeste 0 1019 -0.3 53
2018-01-03 23:00:00 19.3 11 Oeste 21 Oeste 0 1019.1 0.4 48
2018-01-03 22:00:00 19.6 9 Oeste 27 Oeste 0 1019.1 1.1 48
2018-01-03 21:00:00 19.9 13 Oeste 25 Oeste 0 1019.3 1.2 46
2018-01-03 20:00:00 20.7 15 Oeste 26 Oeste 0 1018.7 1 44
2018-01-03 19:00:00 21.4 9 Oeste 20 Noroeste 0 1018 0.4 41
2018-01-03 18:00:00 22.2 8 Noroeste 18 Oeste 0 1018.1 0 40
2018-01-03 17:00:00 23.6 13 Oeste 32 Oeste 0 1017.7 -0.8 37
2018-01-03 16:00:00 24.1 16 Oeste 34 Oeste 0 1017.6 -1.9 36
2018-01-03 15:00:00 24.7 17 Oeste 34 Oeste 0 1018.1 -2.3 35
2018-01-03 14:00:00 24.7 14 Oeste 31 Sudoeste 0 1018.5 -2.5 36
2018-01-03 13:00:00 23.2 15 Oeste 32 Noroeste 0 1019.5 -1.4 39
2018-01-03 12:00:00 21.8 18 Oeste 35 Oeste 0 1020.4 -0.6 42
2018-01-03 11:00:00 20.2 15 Oeste 25 Oeste 0 1021 0.3 47
2018-01-03 10:00:00 17.8 15 Oeste 24 Noroeste 0 1020.9 0.3 54
2018-01-03 09:00:00 16.1 15 Oeste 22 Oeste 0 1021 0.7 59
2018-01-03 08:00:00 14.8 7 Noroeste 17 Noroeste 0 1020.7 0.4 62
2018-01-03 07:00:00 13.1 7 Noroeste 14 Noroeste 0 1020.6 0.5 66
2018-01-03 06:00:00 14.2 11 Oeste 20 Oeste 0 1020.3 0.2 60
2018-01-03 05:00:00 14.3 10 Oeste 25 Oeste 0 1020.3 0.5 60
2018-01-03 04:00:00 12.7 10 Oeste 16 Oeste 0 1020.1 -0.2 66
2018-01-03 03:00:00 12.6 6 Oeste 14 Oeste 0 1020.1 0 66
2018-01-03 02:00:00 13.5 9 Oeste 14 Oeste 0 1019.8 -0.6 63
2018-01-03 01:00:00 16.3 6 Sur 16 Oeste 0 1020.3 -0.2 55
2018-01-03 00:00:00 17.4 9 Oeste 17 Oeste 0 1020.1 0.2 52
2018-01-02 23:00:00 17.6 7 Oeste 23 Oeste 0 1020.4 0.6 50
2018-01-02 22:00:00 17.7 9 Oeste 24 Oeste 0 1020.5 1.1 49
2018-01-02 21:00:00 18.2 16 Oeste 31 Oeste 0 1019.9 0.4 46
2018-01-02 20:00:00 18.5 12 Oeste 28 Oeste 0 1019.8 0.6 45
2018-01-02 19:00:00 19.6 19 Oeste 29 Oeste 0 1019.4 0.6 42
2018-01-02 18:00:00 20.6 14 Oeste 32 Oeste 0 1019.5 0.5 39
2018-01-02 17:00:00 21.6 15 Oeste 36 Oeste 0 1019.2 -0.8 36
2018-01-02 16:00:00 21.6 18 Oeste 36 Oeste 0 1018.8 -2.2 34
2018-01-02 15:00:00 20.8 17 Oeste 38 Oeste 0 1019 -2.7 34
2018-01-02 14:00:00 20.1 19 Oeste 32 Noroeste 0 1020 -2 34
2018-01-02 13:00:00 18.5 16 Oeste 34 Oeste 0 1021 -0.4 37
2018-01-02 12:00:00 18 18 Oeste 31 Oeste 0 1021.7 0.5 37
2018-01-02 11:00:00 17.3 17 Oeste 32 Oeste 0 1022 1.7 39
2018-01-02 10:00:00 14 9 Oeste 17 Noroeste 0 1021.4 1.7 51
2018-01-02 09:00:00 11.9 7 Noroeste 15 Noroeste 0 1021.2 1.3 59
2018-01-02 08:00:00 12.2 8 Noroeste 15 Noroeste 0 1020.3 0.2 58
2018-01-02 07:00:00 11.9 8 Noroeste 14 Oeste 0 1019.7 -0.4 59
2018-01-02 06:00:00 10.6 6 Oeste 8 Oeste 0 1019.9 -0.3 64
2018-01-02 05:00:00 10.7 2 Oeste 9 Oeste 0 1020.1 0.4 60
2018-01-02 04:00:00 12.8 5 Noroeste 14 Oeste 0 1020.1 0.7 54
2018-01-02 03:00:00 14.5 8 Oeste 14 Noroeste 0 1020.2 0.7 49
2018-01-02 02:00:00 15.7 7 Sudoeste 18 Oeste 0 1019.7 0.6 45
2018-01-02 01:00:00 15.9 7 Oeste 25 Sudoeste 0 1019.4 -0.1 44
2018-01-02 00:00:00 16.4 10 Oeste 26 Oeste 0 1019.5 -0.2 42
2018-01-01 23:00:00 16.5 14 Oeste 30 Sudoeste 0 1019.1 -0.3 40
2018-01-01 22:00:00 15.9 15 Sudoeste 25 Sudoeste 0 1019.5 0.5 38
2018-01-01 21:00:00 16.4 13 Sudoeste 43 Oeste 0 1019.7 1.5 35
2018-01-01 20:00:00 17.1 14 Oeste 41 Oeste 0 1019.4 1.4 32
2018-01-01 19:00:00 17.3 16 Oeste 32 Sudoeste 0 1019 0.7 27
2018-01-01 18:00:00 18.2 14 Oeste 31 Oeste 0 1018.2 -0.7 22
2018-01-01 17:00:00 18 12 Sudoeste 24 Sudoeste 0 1018 -1.7 25
2018-01-01 16:00:00 18.2 7 Sudoeste 27 Sur 0 1018.3 -3.5 26
2018-01-01 15:00:00 17.2 15 Sur 36 Sudoeste 0 1018.9 -4.5 31
2018-01-01 14:00:00 17.7 17 Sur 32 Sudoeste 0 1019.7 -4.3 27
2018-01-01 13:00:00 17.7 13 Sur 23 Sur 0 1021.8 -2.1 19
2018-01-01 12:00:00 16.1 12 Sudoeste 34 Oeste 0 1023.4 -0.1 21
2018-01-01 11:00:00 14.2 19 Oeste 30 Oeste 0 1024 0.8 27
2018-01-01 10:00:00 11.1 5 Oeste 15 Oeste 0 1023.9 0.8 39
2018-01-01 09:00:00 10 9 Oeste 15 Oeste 0 1023.5 0.7 40
2018-01-01 08:00:00 9.9 8 Oeste 14 Sudoeste 0 1023.2 1.2 40
2018-01-01 07:00:00 10.2 7 Oeste 15 Sudoeste 0 1023.1 1.6 38
2018-01-01 06:00:00 10.1 6 Sur 22 Noroeste 0 1022.8 1.8 38
2018-01-01 05:00:00 11.4 13 Oeste 26 Oeste 0 1022 2.2 35
2018-01-01 04:00:00 12.1 16 Oeste 40 Oeste 0 1021.5 2 32
2018-01-01 03:00:00 12.6 13 Oeste 31 Oeste 0 1021 2.3 31
2018-01-01 02:00:00 13.6 18 Oeste 38 Noroeste 0 1019.8 2.5 27
2018-01-01 01:00:00 14.6 17 Oeste 36 Oeste 0 1019.5 3.9 30
2018-01-01 00:00:00 15.4 14 Oeste 30 Noroeste 0 1018.7 4.3 35
2017-12-31 23:00:00 16.1 6 Noroeste 27 Oeste 0 1017.3 3.6 39
2017-12-31 22:00:00 15.9 14 Oeste 26 Noroeste 0 1015.6 3 47
2017-12-31 21:00:00 15.4 4 Sudoeste 14 Sudoeste 0 1014.4 2.6 47
2017-12-31 20:00:00 17.2 10 Oeste 32 Oeste 0 1013.7 2.5 41
2017-12-31 19:00:00 14 5 Este 13 Norte 0 1012.6 1.5 71
2017-12-31 18:00:00 14.3 7 Noroeste 14 Nordeste 0 1011.8 0.6 70
2017-12-31 17:00:00 15.1 3 Este 14 Este 0 1011.2 -1.2 67
2017-12-31 16:00:00 16.5 6 Este 14 Nordeste 0 1011.1 -2.6 58
2017-12-31 15:00:00 16.9 6 Nordeste 14 Nordeste 0 1011.2 -3.9 54
2017-12-31 14:00:00 17 3 Este 12 Este 0 1012.4 -3.8 56
2017-12-31 13:00:00 16.8 7 Sur 12 Sur 0 1013.7 -2.6 53
2017-12-31 12:00:00 15.8 4 Sudoeste 13 Oeste 0 1015.1 -1.3 50
2017-12-31 11:00:00 13.1 10 Oeste 16 Oeste 0 1016.2 -0.1 49
2017-12-31 10:00:00 10.8 11 Oeste 18 Oeste 0 1016.3 -0.3 54
2017-12-31 09:00:00 9.3 12 Noroeste 22 Oeste 0 1016.4 -0.5 58
2017-12-31 08:00:00 9.1 12 Oeste 21 Oeste 0 1016.3 -0.8 63
2017-12-31 07:00:00 9.3 9 Noroeste 19 Noroeste 0 1016.6 -0.9 66
2017-12-31 06:00:00 9.7 10 Noroeste 17 Noroeste 0 1016.9 -1 65
2017-12-31 05:00:00 10.1 10 Noroeste 17 Noroeste 0 1017.1 -0.9 65
2017-12-31 04:00:00 9.8 9 Noroeste 17 Oeste 0 1017.5 -0.9 68
2017-12-31 03:00:00 11.1 10 Noroeste 17 Noroeste 0 1017.9 -0.7 63
2017-12-31 02:00:00 11.5 9 Noroeste 16 Oeste 0 1018 -0.3 62
2017-12-31 01:00:00 11.9 6 Noroeste 16 Oeste 0 1018.4 0.1 61